Time;durP1;ratioP1;P1;durP2;ratioP2;P2;SDS_P1;SDS_P2;PMS_P1;PMS_P2;Temp;Humidity;BMP_temperature;BMP_pressure;BME280_temperature;BME280_humidity;BME280_pressure;Samples;Min_cycle;Max_cycle;Signal;HPM_P1;HPM_P2
2021/03/24 00:00:44;;;;;;;108.60;58.05;;;;;;;4.54;92.72;102403.38;4981732;28;20030;-72
2021/03/24 00:03:09;;;;;;;;;;;;;;;4.51;92.78;102400.00;4983076;28;20057;-72
2021/03/24 00:05:37;;;;;;;119.78;58.17;;;;;;;4.47;92.23;102399.31;4970048;28;19976;-72
2021/03/24 00:08:04;;;;;;;124.28;61.90;;;;;;;4.51;92.23;102392.06;4991943;28;20046;-71
2021/03/24 00:10:31;;;;;;;109.32;57.17;;;;;;;4.44;92.69;102395.03;4985736;28;20117;-72
2021/03/24 00:12:58;;;;;;;116.97;58.78;;;;;;;4.45;92.82;102390.59;4985920;28;20058;-72
2021/03/24 00:15:25;;;;;;;123.32;60.75;;;;;;;4.46;92.76;102392.28;4993658;28;20034;-72
2021/03/24 00:17:51;;;;;;;124.18;61.30;;;;;;;4.42;92.85;102386.31;4981371;28;20037;-73
2021/03/24 00:20:20;;;;;;;121.68;62.22;;;;;;;4.03;93.13;102341.50;4978835;28;20066;-71
2021/03/24 00:22:45;;;;;;;125.47;63.20;;;;;;;4.32;93.93;102385.06;4995055;28;20026;-72
2021/03/24 00:25:14;;;;;;;121.78;62.83;;;;;;;4.16;93.72;102360.28;4987211;28;20030;-71
2021/03/24 00:27:44;;;;;;;127.38;63.35;;;;;;;4.44;92.46;102387.09;4985510;28;20105;-71
2021/03/24 00:30:11;;;;;;;126.88;64.18;;;;;;;4.42;92.93;102393.38;4986456;28;20461;-74
2021/03/24 00:32:37;;;;;;;121.30;62.05;;;;;;;4.40;92.69;102390.81;4983677;28;20048;-71
2021/03/24 00:35:04;;;;;;;127.13;64.20;;;;;;;4.33;92.65;102375.31;4991572;28;20034;-71
2021/03/24 00:37:30;;;;;;;127.05;64.80;;;;;;;4.37;92.71;102385.66;4999297;28;20030;-71
2021/03/24 00:39:55;;;;;;;128.02;65.75;;;;;;;4.41;93.38;102391.69;4986280;28;20042;-71
2021/03/24 00:42:21;;;;;;;131.23;67.57;;;;;;;4.38;93.15;102386.53;4986757;28;20030;-72
2021/03/24 00:44:46;;;;;;;129.95;65.80;;;;;;;4.42;93.13;102393.38;4966777;28;20041;-72
2021/03/24 00:47:12;;;;;;;140.52;67.38;;;;;;;4.16;93.67;102340.00;4981512;28;20659;-72
2021/03/24 00:49:37;;;;;;;134.77;66.22;;;;;;;4.37;93.74;102376.91;4977043;28;20022;-73
2021/03/24 00:52:03;;;;;;;140.43;69.53;;;;;;;4.28;94.41;102376.38;4986902;28;20041;-72
2021/03/24 00:54:29;;;;;;;136.52;67.90;;;;;;;4.24;94.32;102368.69;4983775;28;20585;-72
2021/03/24 00:56:54;;;;;;;140.00;71.80;;;;;;;4.25;94.56;102367.75;4983175;28;20022;-72
2021/03/24 00:59:20;;;;;;;145.38;69.00;;;;;;;4.20;94.94;102356.59;4987325;28;20065;-72
2021/03/24 01:01:45;;;;;;;137.50;68.43;;;;;;;4.14;94.83;102361.22;4977375;28;20029;-72
2021/03/24 01:04:11;;;;;;;136.50;71.32;;;;;;;4.12;94.66;102357.78;4985374;28;20124;-72
2021/03/24 01:06:37;;;;;;;142.52;70.47;;;;;;;3.83;94.83;102324.84;4975908;28;20050;-72
2021/03/24 01:09:05;;;;;;;135.77;70.03;;;;;;;4.00;94.92;102345.16;4978937;28;20525;-72
2021/03/24 01:11:31;;;;;;;136.68;70.45;;;;;;;3.96;94.90;102339.19;4980910;28;20447;-72
2021/03/24 01:13:56;;;;;;;138.27;68.07;;;;;;;3.98;94.98;102350.53;4987617;28;20022;-72
2021/03/24 01:16:22;;;;;;;141.88;68.88;;;;;;;3.95;95.21;102355.97;4981911;28;20030;-72
2021/03/24 01:18:47;;;;;;;142.50;70.45;;;;;;;3.91;95.59;102350.91;4983150;28;20049;-72
2021/03/24 01:21:12;;;;;;;141.73;71.80;;;;;;;3.88;96.03;102345.75;4984029;28;20034;-71
2021/03/24 01:23:38;;;;;;;143.25;71.07;;;;;;;3.85;95.95;102344.13;4982034;28;20041;-72
2021/03/24 01:26:03;;;;;;;146.35;69.72;;;;;;;3.83;96.21;102336.25;4988886;28;20077;-72
2021/03/24 01:28:30;;;;;;;143.40;71.65;;;;;;;3.78;96.34;102332.13;4984868;28;20049;-72
2021/03/24 01:30:57;;;;;;;144.57;71.15;;;;;;;3.81;96.32;102331.97;4965975;28;20034;-72
2021/03/24 01:33:24;;;;;;;146.95;72.10;;;;;;;3.79;95.92;102328.56;4978887;28;20042;-72
2021/03/24 01:35:50;;;;;;;146.05;70.38;;;;;;;3.78;96.06;102333.00;4980095;28;20250;-72
2021/03/24 01:38:16;;;;;;;145.15;71.38;;;;;;;3.65;96.34;102323.94;4987862;28;20532;-72
2021/03/24 01:40:43;;;;;;;145.63;71.18;;;;;;;3.75;96.34;102333.13;4988763;28;20050;-72
2021/03/24 01:43:19;;;;;;;145.68;72.20;;;;;;;3.67;96.83;102336.13;4990575;28;20543;-72
2021/03/24 01:45:44;;;;;;;138.23;70.22;;;;;;;3.68;97.07;102336.97;4983424;28;20030;-72
2021/03/24 01:48:15;;;;;;;141.43;69.90;;;;;;;3.68;97.11;102331.69;4996681;28;20565;-72
2021/03/24 01:50:42;;;;;;;138.32;68.22;;;;;;;3.65;96.33;102340.63;5005383;28;20084;-73
2021/03/24 01:53:07;;;;;;;144.02;69.78;;;;;;;3.65;96.53;102335.34;5001892;28;20030;-72
2021/03/24 01:55:33;;;;;;;140.35;72.25;;;;;;;3.67;96.54;102329.97;4988396;28;20507;-72
2021/03/24 01:58:00;;;;;;;145.35;71.68;;;;;;;3.66;96.68;102323.00;4980265;28;20089;-72
2021/03/24 02:00:56;;;;;;;140.23;69.43;;;;;;;3.52;96.64;102291.97;4992595;28;20034;-72
2021/03/24 02:03:27;;;;;;;148.98;71.05;;;;;;;3.76;96.50;102324.28;4987918;28;20039;-72
2021/03/24 02:05:55;;;;;;;143.43;71.47;;;;;;;3.74;96.79;102320.84;4982790;28;20065;-71
2021/03/24 02:08:29;;;;;;;143.18;70.80;;;;;;;3.71;97.04;102325.44;4988933;28;20538;-72
2021/03/24 02:11:02;;;;;;;147.73;72.20;;;;;;;3.63;97.13;102321.34;4985397;28;20023;-73
2021/03/24 02:13:34;;;;;;;137.65;71.10;;;;;;;3.61;97.57;102322.34;4985765;28;20555;-72
2021/03/24 02:16:07;;;;;;;148.10;73.18;;;;;;;3.56;97.41;102321.69;4977055;28;20093;-72
2021/03/24 02:18:36;;;;;;;138.45;71.13;;;;;;;3.53;97.46;102322.72;4985027;28;20554;-72
2021/03/24 02:21:08;;;;;;;146.05;71.90;;;;;;;3.24;97.46;102289.75;4987125;28;20049;-72
2021/03/24 02:23:51;;;;;;;142.25;70.78;;;;;;;3.43;97.92;102324.06;4989378;28;20092;-72
2021/03/24 02:26:32;;;;;;;150.60;70.43;;;;;;;3.42;97.54;102325.84;4983634;28;20039;-72
2021/03/24 02:29:03;;;;;;;148.18;71.63;;;;;;;3.38;97.67;102334.84;5004509;28;20690;-72
2021/03/24 02:31:30;;;;;;;143.52;70.00;;;;;;;3.35;97.78;102334.97;4990886;28;20022;-72
2021/03/24 02:34:00;;;;;;;141.77;71.63;;;;;;;3.28;97.91;102326.47;4989609;28;20121;-72
2021/03/24 02:36:27;;;;;;;150.07;72.60;;;;;;;3.24;97.67;102330.16;4979312;28;20030;-72
2021/03/24 02:38:56;;;;;;;148.68;73.53;;;;;;;3.24;98.56;102319.59;4982652;28;20049;-72
2021/03/24 02:41:22;;;;;;;157.63;75.63;;;;;;;3.26;98.71;102317.75;4989253;28;20061;-73
2021/03/24 02:43:48;;;;;;;155.75;76.72;;;;;;;3.30;98.28;102314.06;4989672;28;20065;-72
2021/03/24 02:46:15;;;;;;;155.45;75.68;;;;;;;3.29;98.61;102308.84;5005536;28;20037;-72
2021/03/24 02:48:43;;;;;;;162.20;74.90;;;;;;;3.28;98.77;102313.28;5014162;28;20141;-72
2021/03/24 02:51:13;;;;;;;156.75;76.03;;;;;;;3.27;98.48;102308.06;4997202;28;20035;-72
2021/03/24 02:53:40;;;;;;;164.27;75.07;;;;;;;3.27;98.29;102305.41;4998448;28;20500;-72
2021/03/24 02:56:08;;;;;;;171.50;77.15;;;;;;;3.25;98.36;102302.00;4985848;28;20030;-72
2021/03/24 02:58:35;;;;;;;155.90;76.80;;;;;;;2.77;98.26;102217.94;4990263;28;20081;-72
2021/03/24 03:01:05;;;;;;;158.73;76.57;;;;;;;3.22;98.42;102300.34;4998896;28;20042;-72
2021/03/24 03:03:36;;;;;;;160.25;74.53;;;;;;;3.23;98.21;102294.16;4977546;28;20304;-72
2021/03/24 03:06:03;;;;;;;158.48;74.88;;;;;;;3.22;98.05;102292.44;4985067;28;20046;-72
2021/03/24 03:08:37;;;;;;;158.03;77.53;;;;;;;3.09;98.02;102276.31;4979050;28;20539;-72
2021/03/24 03:11:06;;;;;;;160.95;74.60;;;;;;;2.81;98.18;102240.63;4978592;28;20022;-71
2021/03/24 03:13:34;;;;;;;;;;;;;;;3.13;98.54;102292.84;4991967;28;20017;-72
2021/03/24 03:16:17;;;;;;;;;;;;;;;3.22;98.04;102289.78;4986383;28;19917;-71
2021/03/24 03:18:51;;;;;;;155.88;74.25;;;;;;;3.21;98.43;102290.72;4987182;28;20151;-72
2021/03/24 03:21:24;;;;;;;165.48;76.47;;;;;;;3.15;99.10;102285.75;4986357;28;20026;-72
2021/03/24 03:23:50;;;;;;;171.00;77.95;;;;;;;3.11;98.86;102289.44;4990640;28;20110;-72
2021/03/24 03:26:19;;;;;;;161.38;76.63;;;;;;;3.15;99.16;102285.75;4976137;28;20053;-72
2021/03/24 03:28:49;;;;;;;162.85;77.97;;;;;;;3.16;98.55;102284.81;4978786;28;20496;-72
2021/03/24 03:31:19;;;;;;;151.43;77.28;;;;;;;3.15;98.83;102285.75;4976979;28;20038;-71
2021/03/24 03:33:49;;;;;;;158.70;76.07;;;;;;;3.07;98.52;102280.81;4978990;28;20045;-72
2021/03/24 03:36:15;;;;;;;159.88;76.50;;;;;;;3.04;98.47;102267.75;4976532;28;20065;-72
2021/03/24 03:38:43;;;;;;;148.38;71.93;;;;;;;2.98;98.32;102271.50;4982253;28;20030;-72
2021/03/24 03:41:13;;;;;;;148.90;72.47;;;;;;;3.05;98.49;102269.47;4991477;28;20034;-72
2021/03/24 03:43:45;;;;;;;159.15;74.05;;;;;;;3.00;98.63;102263.53;4996277;28;20030;-72
2021/03/24 03:46:18;;;;;;;155.02;74.80;;;;;;;3.01;98.68;102265.25;4986280;28;20035;-71
2021/03/24 03:48:45;;;;;;;159.55;76.60;;;;;;;2.92;99.08;102277.03;4982201;28;20026;-71
2021/03/24 03:51:23;;;;;;;164.38;76.38;;;;;;;2.91;98.94;102270.94;4983543;28;20145;-72
2021/03/24 03:53:56;;;;;;;160.97;76.07;;;;;;;2.77;99.62;102257.50;4982476;28;20223;-71
2021/03/24 03:56:34;;;;;;;154.82;76.60;;;;;;;2.84;100.00;102268.63;4979164;28;20813;-71
2021/03/24 03:59:12;;;;;;;158.40;73.72;;;;;;;2.80;100.00;102269.69;4991926;28;20137;-72
2021/03/24 04:01:46;;;;;;;166.18;77.18;;;;;;;2.79;100.00;102268.84;5002240;28;20587;-71
2021/03/24 04:04:20;;;;;;;150.23;73.65;;;;;;;2.79;100.00;102271.47;4984187;28;20038;-71
2021/03/24 04:06:57;;;;;;;160.15;73.78;;;;;;;2.76;100.00;102274.25;4993970;28;20077;-71
2021/03/24 04:09:23;;;;;;;159.70;74.32;;;;;;;2.70;100.00;102267.47;4999849;28;20034;-73
2021/03/24 04:11:52;;;;;;;154.70;76.47;;;;;;;2.75;100.00;102273.41;4984860;28;20033;-71
2021/03/24 04:14:19;;;;;;;;;;;;;;;2.73;100.00;102271.72;4984613;28;20591;-72
2021/03/24 04:16:46;;;;;;;162.07;74.78;;;;;;;2.71;100.00;102274.44;4983019;28;19924;-71
2021/03/24 04:19:14;;;;;;;151.02;74.40;;;;;;;2.75;100.00;102272.53;4983866;28;20037;-73
2021/03/24 04:21:42;;;;;;;;;;;;;;;2.73;100.00;102264.69;4987308;28;20038;-71
2021/03/24 04:24:27;;;;;;;165.10;75.83;;;;;;;2.75;100.00;102270.75;4987284;28;19914;-71
2021/03/24 04:26:59;;;;;;;151.23;75.60;;;;;;;2.56;100.00;102232.94;4980902;28;20461;-71
2021/03/24 04:29:37;;;;;;;166.20;76.72;;;;;;;2.78;100.00;102263.66;4978412;28;20057;-71
2021/03/24 04:32:04;;;;;;;165.23;78.18;;;;;;;2.85;100.00;102272.97;4980952;28;20026;-72
2021/03/24 04:34:30;;;;;;;160.40;77.53;;;;;;;2.37;100.00;102202.13;5001893;28;20041;-73
2021/03/24 04:37:02;;;;;;;148.32;76.57;;;;;;;2.86;100.00;102274.69;4999906;28;20030;-71
2021/03/24 04:39:42;;;;;;;155.20;75.30;;;;;;;2.84;100.00;102266.00;4984682;28;20404;-73
2021/03/24 04:42:14;;;;;;;163.00;76.10;;;;;;;2.85;100.00;102273.81;4981260;28;20405;-71
2021/03/24 04:44:42;;;;;;;145.20;75.68;;;;;;;2.94;99.64;102269.94;4980851;28;20026;-71
2021/03/24 04:47:15;;;;;;;152.88;75.18;;;;;;;2.90;99.61;102273.66;4986271;28;20021;-72
2021/03/24 04:50:16;;;;;;;155.77;75.68;;;;;;;2.87;99.74;102276.41;4988951;28;20454;-71
2021/03/24 04:52:42;;;;;;;152.75;74.38;;;;;;;2.86;99.68;102279.97;4990952;28;20077;-71
2021/03/24 04:55:14;;;;;;;148.30;74.65;;;;;;;2.85;99.75;102283.53;4986254;28;20193;-72
2021/03/24 04:57:41;;;;;;;148.10;74.47;;;;;;;2.81;99.42;102276.66;4984630;28;20034;-71
2021/03/24 05:00:21;;;;;;;150.32;74.78;;;;;;;2.31;99.16;102183.94;4996027;28;20536;-72
2021/03/24 05:02:55;;;;;;;149.98;73.93;;;;;;;2.80;99.34;102275.84;4987090;28;20037;-71
2021/03/24 05:05:26;;;;;;;146.38;73.28;;;;;;;2.79;99.57;102278.50;4981389;28;20090;-72
2021/03/24 05:08:02;;;;;;;150.52;73.82;;;;;;;2.71;99.33;102284.16;4989720;28;20053;-71
2021/03/24 05:10:31;;;;;;;146.30;72.75;;;;;;;2.66;99.62;102286.13;4997154;28;20576;-73
2021/03/24 05:13:15;;;;;;;153.85;76.35;;;;;;;2.63;99.83;102291.50;4987158;28;20548;-72
2021/03/24 05:15:45;;;;;;;148.77;72.10;;;;;;;2.58;99.90;102286.44;4980866;28;20018;-72
2021/03/24 05:18:13;;;;;;;156.18;74.43;;;;;;;2.53;100.00;102276.09;4997732;28;20456;-72
2021/03/24 05:20:58;;;;;;;153.82;73.68;;;;;;;2.51;100.00;102285.84;4984529;28;20086;-72
2021/03/24 05:23:24;;;;;;;148.90;74.53;;;;;;;2.43;100.00;102269.53;4987425;28;20030;-72
2021/03/24 05:25:59;;;;;;;145.25;73.57;;;;;;;2.43;100.00;102280.06;4980149;28;20389;-71
2021/03/24 05:28:31;;;;;;;160.40;76.50;;;;;;;2.36;100.00;102262.78;4986348;28;20038;-72
2021/03/24 05:31:07;;;;;;;164.88;77.18;;;;;;;2.46;100.00;102282.53;4977361;28;20034;-72
2021/03/24 05:33:41;;;;;;;160.35;77.28;;;;;;;2.47;100.00;102286.03;4987433;28;20032;-72
2021/03/24 05:36:16;;;;;;;150.98;75.40;;;;;;;2.44;100.00;102285.25;4982099;28;20022;-72
2021/03/24 05:38:43;;;;;;;169.30;79.10;;;;;;;2.46;100.00;102285.16;4989817;28;20042;-72
2021/03/24 05:41:38;;;;;;;162.50;77.85;;;;;;;2.20;100.00;102238.88;4989350;28;20658;-72
2021/03/24 05:44:16;;;;;;;166.20;77.13;;;;;;;2.50;100.00;102284.13;4993539;28;20019;-72
2021/03/24 05:47:16;;;;;;;151.18;75.75;;;;;;;2.52;100.00;102284.06;4977449;28;20109;-72
2021/03/24 05:50:09;;;;;;;163.00;75.47;;;;;;;2.56;100.00;102296.19;4979896;28;20042;-73
2021/03/24 05:53:00;;;;;;;156.15;73.88;;;;;;;2.63;100.00;102291.50;4987922;28;20042;-72
2021/03/24 05:55:28;;;;;;;149.93;72.90;;;;;;;2.67;100.00;102287.84;4979854;28;20117;-72
2021/03/24 05:58:17;;;;;;;151.45;73.10;;;;;;;2.68;100.00;102290.38;4972357;28;20040;-72
2021/03/24 06:01:07;;;;;;;157.75;74.43;;;;;;;2.73;99.92;102288.41;4987933;28;20088;-72
2021/03/24 06:03:33;;;;;;;144.05;73.93;;;;;;;2.72;99.95;102286.72;4979716;28;20026;-72
2021/03/24 06:06:20;;;;;;;147.48;73.45;;;;;;;2.79;99.71;102287.28;4997381;28;20437;-72
2021/03/24 06:09:14;;;;;;;151.00;74.37;;;;;;;2.87;99.69;102287.81;4992736;28;20030;-72
2021/03/24 06:12:00;;;;;;;159.82;73.05;;;;;;;2.94;99.08;102283.13;4991523;28;20412;-72
2021/03/24 06:14:43;;;;;;;151.48;73.10;;;;;;;3.04;99.26;102288.84;4985253;28;20085;-72
2021/03/24 06:17:47;;;;;;;153.35;74.45;;;;;;;3.06;98.92;102287.84;4976613;28;20026;-72
2021/03/24 06:20:28;;;;;;;141.98;71.47;;;;;;;3.14;98.61;102290.13;4984160;28;20035;-72
2021/03/24 06:23:13;;;;;;;146.05;72.45;;;;;;;3.20;97.93;102289.88;4986904;28;20065;-72
2021/03/24 06:25:44;;;;;;;139.93;70.32;;;;;;;3.28;98.10;102296.56;4987395;28;20038;-72
2021/03/24 06:28:49;;;;;;;131.25;68.82;;;;;;;3.38;97.26;102292.63;4987596;28;20034;-72
2021/03/24 06:31:40;;;;;;;139.95;71.35;;;;;;;3.51;97.07;102290.25;5002726;28;20117;-72
2021/03/24 06:34:28;;;;;;;135.13;68.50;;;;;;;3.04;96.51;102196.53;4989523;28;20057;-73
2021/03/24 06:36:56;;;;;;;;;;;;;;;3.70;96.50;102282.31;4982319;28;20030;-73
2021/03/24 06:39:37;;;;;;;;;;;;;;;3.77;96.37;102277.59;4989294;28;19926;-73
2021/03/24 06:42:27;;;;;;;127.53;65.88;;;;;;;3.84;95.71;102292.22;4990264;28;19916;-73
2021/03/24 06:45:25;;;;;;;131.10;67.20;;;;;;;4.00;95.73;102281.78;4985788;28;20105;-73
2021/03/24 06:48:11;;;;;;;125.75;66.75;;;;;;;4.56;94.75;102281.66;4988223;28;20034;-73
2021/03/24 06:51:34;;;;;;;119.43;67.05;;;;;;;5.25;90.83;102289.53;5000115;28;20162;-73
2021/03/24 06:54:02;;;;;;;114.20;64.75;;;;;;;6.19;87.90;102283.47;4925023;29;20035;-73
2021/03/24 06:56:46;;;;;;;104.13;61.65;;;;;;;7.07;83.52;102285.38;4933525;29;20142;-73
2021/03/24 06:59:51;;;;;;;102.43;61.40;;;;;;;7.68;79.92;102285.97;4962134;28;20047;-73
2021/03/24 07:02:35;;;;;;;95.20;57.08;;;;;;;8.18;76.92;102294.25;4984475;28;20038;-73
2021/03/24 07:05:19;;;;;;;92.97;57.50;;;;;;;8.60;75.43;102283.50;4980227;28;20061;-73
2021/03/24 07:07:58;;;;;;;91.07;58.78;;;;;;;8.69;72.53;102280.19;4994209;28;20046;-73
2021/03/24 07:10:45;;;;;;;98.43;59.03;;;;;;;9.03;71.73;102275.19;5001115;28;20114;-73
2021/03/24 07:14:01;;;;;;;81.40;53.47;;;;;;;9.56;70.35;102275.97;4986159;28;20038;-73
2021/03/24 07:16:32;;;;;;;90.45;57.63;;;;;;;9.62;69.21;102273.72;4983480;28;20473;-71
2021/03/24 07:19:35;;;;;;;80.88;54.65;;;;;;;10.02;68.26;102272.56;4984773;28;20034;-71
2021/03/24 07:22:29;;;;;;;83.03;54.42;;;;;;;10.04;69.82;102275.13;4983464;28;20093;-71
2021/03/24 07:25:12;;;;;;;86.60;57.28;;;;;;;10.38;67.14;102277.94;4985799;28;20026;-71
2021/03/24 07:27:55;;;;;;;85.13;56.67;;;;;;;10.41;67.17;102267.88;4986640;28;20536;-71
2021/03/24 07:30:33;;;;;;;84.43;55.22;;;;;;;10.60;66.48;102279.84;5003903;28;20055;-71
2021/03/24 07:33:22;;;;;;;82.00;55.42;;;;;;;10.48;67.73;102270.09;4986124;28;20062;-71
2021/03/24 07:36:22;;;;;;;74.18;52.10;;;;;;;11.10;65.19;102268.84;4977055;28;20022;-71
2021/03/24 07:39:18;;;;;;;77.88;54.03;;;;;;;11.30;64.96;102277.06;4979759;28;20042;-71
2021/03/24 07:41:55;;;;;;;79.78;53.08;;;;;;;11.49;64.19;102277.31;4981055;28;20030;-71
2021/03/24 07:44:56;;;;;;;72.97;50.45;;;;;;;11.86;63.05;102267.25;4982014;28;20049;-71
2021/03/24 07:47:37;;;;;;;74.68;51.65;;;;;;;12.24;61.90;102268.56;4983163;28;20038;-71
2021/03/24 07:50:11;;;;;;;73.32;50.67;;;;;;;13.07;58.73;102276.69;4984102;28;20097;-73
2021/03/24 07:52:48;;;;;;;78.53;53.15;;;;;;;13.42;57.91;102270.06;4981686;28;20034;-74
2021/03/24 07:55:16;;;;;;;71.10;51.83;;;;;;;13.35;58.09;102266.22;4976778;28;20035;-74
2021/03/24 07:58:07;;;;;;;79.30;52.78;;;;;;;13.51;57.64;102275.56;4972962;28;20240;-73
2021/03/24 08:01:08;;;;;;;73.53;51.88;;;;;;;13.77;57.84;102262.50;4971810;28;20481;-73
2021/03/24 08:03:51;;;;;;;69.22;49.13;;;;;;;14.55;55.46;102265.13;4973744;28;20405;-74
2021/03/24 08:06:45;;;;;;;67.18;50.33;;;;;;;14.59;55.60;102268.38;4978528;28;20580;-74
2021/03/24 08:09:18;;;;;;;68.70;49.70;;;;;;;14.76;55.18;102271.34;4981214;28;20057;-74
2021/03/24 08:12:13;;;;;;;63.92;49.85;;;;;;;14.48;54.23;102206.78;4981688;28;20040;-73
2021/03/24 08:14:53;;;;;;;63.15;46.83;;;;;;;15.15;53.76;102268.50;4971859;28;20034;-74
2021/03/24 08:18:02;;;;;;;67.40;48.83;;;;;;;15.53;52.10;102274.69;4993793;28;20080;-74
2021/03/24 08:20:46;;;;;;;63.30;48.08;;;;;;;15.64;52.35;102280.84;4969836;28;20037;-74
2021/03/24 08:23:38;;;;;;;64.90;49.65;;;;;;;15.81;52.19;102280.00;4970566;28;20037;-74
2021/03/24 08:26:35;;;;;;;58.97;47.13;;;;;;;16.60;49.64;102282.06;4990197;28;20097;-74
2021/03/24 08:29:27;;;;;;;66.97;47.97;;;;;;;16.34;50.43;102269.41;4988492;28;20074;-74
2021/03/24 08:32:38;;;;;;;60.83;47.50;;;;;;;16.65;48.99;102268.94;4972560;28;20469;-74
2021/03/24 08:35:15;;;;;;;62.35;46.47;;;;;;;16.84;49.27;102271.44;4971582;28;20551;-74
2021/03/24 08:38:07;;;;;;;64.60;46.17;;;;;;;16.86;47.92;102252.38;4987845;28;20076;-74
2021/03/24 08:41:07;;;;;;;63.10;46.28;;;;;;;16.87;47.86;102256.78;4973672;28;20034;-74
2021/03/24 08:43:45;;;;;;;59.80;47.25;;;;;;;17.08;48.41;102277.97;4971794;28;20481;-74
2021/03/24 08:46:17;;;;;;;;;;;;;;;17.32;47.63;102276.38;4965370;28;20104;-74
2021/03/24 08:48:51;;;;;;;63.83;46.65;;;;;;;17.63;46.54;102248.81;4967531;28;20008;-74
2021/03/24 08:51:35;;;;;;;62.15;47.72;;;;;;;17.68;47.41;102270.75;4985659;28;20030;-74
2021/03/24 08:54:20;;;;;;;60.90;46.88;;;;;;;17.94;46.05;102272.50;4970998;28;20145;-73
2021/03/24 08:57:03;;;;;;;60.00;46.15;;;;;;;18.16;45.94;102270.16;4968183;28;20034;-71
2021/03/24 08:59:46;;;;;;;66.80;47.78;;;;;;;18.60;44.38;102269.78;4970445;28;20038;-74
2021/03/24 09:02:49;;;;;;;65.28;48.35;;;;;;;18.47;44.59;102264.06;4948069;28;20400;-74
2021/03/24 09:05:45;;;;;;;60.42;47.38;;;;;;;18.62;44.08;102262.34;4966173;28;20287;-74
2021/03/24 09:08:51;;;;;;;59.03;45.67;;;;;;;18.36;44.21;102265.25;4969001;28;20048;-74
2021/03/24 09:11:38;;;;;;;61.92;48.17;;;;;;;18.13;44.80;102270.47;4968556;28;20389;-75
2021/03/24 09:14:04;;;;;;;;;;;;;;;18.55;43.47;102265.91;4951279;28;20037;-74
2021/03/24 09:16:48;;;;;;;60.97;46.80;;;;;;;18.42;44.71;102269.97;4964605;28;20040;-71
2021/03/24 09:19:41;;;;;;;61.45;46.42;;;;;;;17.91;46.59;102275.50;4969651;28;20278;-74
2021/03/24 09:22:44;;;;;;;62.58;46.92;;;;;;;17.56;45.68;102262.13;4983901;28;20058;-74
2021/03/24 09:25:33;;;;;;;64.25;47.05;;;;;;;16.37;50.19;102266.38;4966125;28;20114;-74
2021/03/24 09:28:32;;;;;;;64.57;45.75;;;;;;;15.53;50.56;102274.69;4979143;28;20042;-74
2021/03/24 09:31:33;;;;;;;64.35;43.97;;;;;;;14.79;53.62;102276.44;4973182;28;20030;-74
2021/03/24 09:34:23;;;;;;;66.95;44.85;;;;;;;14.26;55.36;102270.56;4968954;28;20510;-71
2021/03/24 09:36:59;;;;;;;67.50;43.90;;;;;;;14.19;56.57;102274.78;4973091;28;20105;-77
2021/03/24 09:39:45;;;;;;;71.63;43.47;;;;;;;14.02;58.28;102274.53;4982432;28;20047;-75
2021/03/24 09:42:25;;;;;;;71.40;46.45;;;;;;;14.02;56.33;102277.22;4989071;28;20050;-74
2021/03/24 09:44:54;;;;;;;64.18;42.33;;;;;;;13.90;55.95;102278.34;4982176;28;20034;-74
2021/03/24 09:47:31;;;;;;;61.25;40.00;;;;;;;13.72;55.61;102279.03;4983775;28;20038;-74
2021/03/24 09:50:18;;;;;;;67.15;40.53;;;;;;;13.43;57.30;102274.44;4986177;28;20033;-71
2021/03/24 09:53:02;;;;;;;70.35;44.95;;;;;;;13.25;59.48;102278.72;4982119;28;20064;-74
2021/03/24 09:55:44;;;;;;;63.28;38.78;;;;;;;13.35;57.55;102274.25;4995388;28;20037;-74
2021/03/24 09:58:22;;;;;;;63.63;41.50;;;;;;;13.27;56.81;102276.75;4989951;28;20034;-70
2021/03/24 10:01:25;;;;;;;65.20;41.78;;;;;;;13.07;57.90;102275.81;4987537;28;20564;-71
2021/03/24 10:04:14;;;;;;;65.05;42.20;;;;;;;13.04;57.26;102262.69;4978566;28;20037;-70
2021/03/24 10:07:02;;;;;;;75.03;43.00;;;;;;;12.91;57.96;102262.94;4984679;28;20580;-74
2021/03/24 10:09:35;;;;;;;70.00;41.55;;;;;;;12.92;61.04;102241.34;4982251;28;20425;-73
2021/03/24 10:12:07;;;;;;;64.97;40.58;;;;;;;13.20;57.52;102262.19;4987796;28;20027;-73
2021/03/24 10:14:44;;;;;;;63.25;39.97;;;;;;;13.12;59.85;102279.78;4971308;28;20041;-76
2021/03/24 10:17:25;;;;;;;67.22;41.25;;;;;;;13.12;58.42;102265.56;4997341;28;20035;-77
2021/03/24 10:20:06;;;;;;;68.43;40.40;;;;;;;13.12;59.29;102262.88;4983910;28;20515;-72
2021/03/24 10:22:38;;;;;;;69.50;42.55;;;;;;;13.33;58.63;102260.97;4986607;28;20401;-76
2021/03/24 10:25:09;;;;;;;59.75;39.17;;;;;;;13.16;57.54;102267.81;4984525;28;20022;-77
2021/03/24 10:27:35;;;;;;;61.95;39.60;;;;;;;13.11;58.58;102259.34;4988585;28;20065;-73
2021/03/24 10:30:20;;;;;;;66.97;40.72;;;;;;;13.21;59.34;102267.41;4982862;28;20027;-73
2021/03/24 10:32:58;;;;;;;62.08;38.20;;;;;;;13.23;58.40;102262.78;4983830;28;20034;-73
2021/03/24 10:35:36;;;;;;;62.40;40.88;;;;;;;13.33;58.23;102263.66;4984956;28;20049;-73
2021/03/24 10:38:10;;;;;;;;;;;;;;;13.39;58.45;102253.38;4988487;28;20045;-76
2021/03/24 10:40:42;;;;;;;61.60;39.38;;;;;;;13.29;57.26;102242.63;4989466;28;20360;-76
2021/03/24 10:43:19;;;;;;;63.55;39.90;;;;;;;13.39;57.53;102256.06;4984862;28;20034;-77
2021/03/24 10:46:09;;;;;;;62.13;39.42;;;;;;;13.48;56.39;102249.88;4984182;28;20057;-77
2021/03/24 10:48:54;;;;;;;64.95;40.85;;;;;;;13.67;57.98;102248.22;4981008;28;20034;-76
2021/03/24 10:51:34;;;;;;;63.42;41.83;;;;;;;13.56;55.70;102211.66;4983437;28;20088;-76
2021/03/24 10:54:08;;;;;;;69.90;41.92;;;;;;;13.86;56.75;102233.97;4987985;28;20112;-76
2021/03/24 10:56:55;;;;;;;69.72;43.22;;;;;;;13.76;57.05;102229.47;4974690;28;20057;-70
2021/03/24 10:59:41;;;;;;;63.50;41.17;;;;;;;14.03;56.42;102221.69;4984425;28;20397;-73
2021/03/24 11:02:16;;;;;;;65.47;42.33;;;;;;;13.84;55.29;102226.09;4986078;28;20524;-73
2021/03/24 11:05:03;;;;;;;67.13;41.97;;;;;;;13.54;55.99;102182.31;4985167;28;20371;-73
2021/03/24 11:07:37;;;;;;;62.45;39.00;;;;;;;13.38;56.62;102184.66;4985790;28;20061;-73
2021/03/24 11:10:42;;;;;;;66.75;41.13;;;;;;;13.61;56.95;102220.97;4998644;28;20058;-77
2021/03/24 11:13:15;;;;;;;62.13;39.05;;;;;;;13.72;57.59;102216.47;4984148;28;20037;-76
2021/03/24 11:16:00;;;;;;;65.80;41.05;;;;;;;13.69;56.40;102211.41;4966743;28;20267;-76
2021/03/24 11:18:33;;;;;;;67.03;41.90;;;;;;;13.74;57.22;102207.31;4986386;28;20026;-76
2021/03/24 11:21:05;;;;;;;60.80;38.72;;;;;;;13.74;56.57;102206.44;4983858;28;20136;-76
2021/03/24 11:23:44;;;;;;;64.82;40.70;;;;;;;13.60;57.03;102205.03;4986168;28;20073;-73
2021/03/24 11:26:47;;;;;;;67.30;42.58;;;;;;;13.54;57.54;102210.94;4980566;28;20258;-73
2021/03/24 11:29:19;;;;;;;60.88;38.55;;;;;;;13.33;57.90;102188.56;4963758;28;20090;-73
2021/03/24 11:32:11;;;;;;;63.72;39.13;;;;;;;13.49;57.53;102213.22;4983102;28;20057;-72
2021/03/24 11:34:59;;;;;;;62.83;40.72;;;;;;;13.21;57.55;102175.44;4984622;28;20015;-72
2021/03/24 11:37:40;;;;;;;62.03;40.05;;;;;;;13.49;58.01;102207.84;4986497;28;20056;-73
2021/03/24 11:40:32;;;;;;;58.25;36.55;;;;;;;13.69;57.56;102211.41;4986536;28;20016;-73
2021/03/24 11:43:04;;;;;;;53.25;34.88;;;;;;;13.64;56.65;102209.09;4985129;28;20029;-73
2021/03/24 11:45:32;;;;;;;55.15;34.65;;;;;;;13.53;56.19;102210.09;4983000;28;20034;-71
2021/03/24 11:48:10;;;;;;;53.53;33.47;;;;;;;13.55;57.23;102223.34;4986299;28;20034;-71
2021/03/24 11:51:14;;;;;;;58.25;34.08;;;;;;;13.67;56.70;102216.88;4988728;28;20034;-71
2021/03/24 11:53:39;;;;;;;56.33;34.67;;;;;;;13.68;56.69;102212.38;4969829;28;20037;-71
2021/03/24 11:56:31;;;;;;;52.45;35.67;;;;;;;13.69;56.37;102212.22;4982750;28;20019;-71
2021/03/24 11:59:26;;;;;;;61.70;37.10;;;;;;;13.68;56.47;102202.47;4984203;28;20022;-71